createdAt,value
2022-08-17T00:02:27.256Z,7.12
2022-08-17T00:04:58.321Z,6.95
2022-08-17T00:07:29.281Z,6.83
2022-08-17T00:10:00.287Z,6.50
2022-08-17T00:12:42.681Z,7.12
2022-08-17T00:15:03.815Z,6.65
2022-08-17T00:17:35.054Z,7.67
2022-08-17T00:20:07.004Z,7.50
2022-08-17T00:22:38.032Z,7.15
2022-08-17T00:25:11.771Z,7.62
2022-08-17T00:27:43.493Z,8.30
2022-08-17T00:30:15.729Z,8.23
2022-08-17T00:33:14.307Z,8.60
2022-08-17T00:35:24.781Z,7.50
2022-08-17T00:37:56.707Z,7.90
2022-08-17T00:40:27.797Z,7.25
2022-08-17T00:42:59.964Z,7.60
2022-08-17T00:45:31.160Z,6.30
2022-08-17T00:48:02.164Z,6.22
2022-08-17T00:50:33.368Z,6.60
2022-08-17T00:53:06.133Z,6.20
2022-08-17T00:55:37.570Z,6.30
2022-08-17T00:58:09.108Z,6.03
2022-08-17T01:00:42.599Z,5.33
2022-08-17T01:03:16.559Z,6.03
2022-08-17T01:05:48.783Z,6.20
2022-08-17T01:08:22.177Z,5.12
2022-08-17T01:10:59.779Z,6.95
2022-08-17T01:13:29.902Z,5.12
2022-08-17T01:16:03.399Z,5.20
2022-08-17T01:18:34.853Z,5.40
2022-08-17T01:21:08.009Z,5.35
2022-08-17T01:23:39.654Z,5.53
2022-08-17T01:26:10.560Z,5.87
2022-08-17T01:28:53.741Z,5.58
2022-08-17T01:31:15.403Z,5.80
2022-08-17T01:33:46.163Z,5.40
2022-08-17T01:36:17.411Z,4.95
2022-08-17T01:38:48.432Z,5.28
2022-08-17T01:41:19.892Z,4.60
2022-08-17T01:43:53.040Z,4.62
2022-08-17T01:46:26.443Z,4.90
2022-08-17T01:48:59.105Z,4.87
2022-08-17T01:51:34.212Z,4.50
2022-08-17T01:54:07.575Z,3.80
2022-08-17T01:56:40.826Z,4.00
2022-08-17T01:59:11.869Z,3.40
2022-08-17T02:01:43.025Z,4.30
2022-08-17T02:04:14.347Z,3.58
2022-08-17T02:06:54.181Z,3.50
2022-08-17T02:09:18.168Z,3.80
2022-08-17T02:11:49.201Z,3.30
2022-08-17T02:14:20.941Z,4.95
2022-08-17T02:16:51.942Z,3.08
2022-08-17T02:19:23.575Z,3.75
2022-08-17T02:21:56.424Z,3.87
2022-08-17T02:25:00.522Z,3.77
2022-08-17T02:27:02.218Z,3.17
2022-08-17T02:29:33.772Z,3.55
2022-08-17T02:32:06.098Z,3.42
2022-08-17T02:34:37.097Z,3.15
2022-08-17T02:37:08.385Z,3.10
2022-08-17T02:39:40.273Z,3.45
2022-08-17T02:42:11.401Z,3.70
2022-08-17T02:44:43.148Z,3.20
2022-08-17T02:47:14.702Z,3.77
2022-08-17T02:49:54.180Z,3.50
2022-08-17T02:52:17.924Z,3.80
2022-08-17T02:54:50.614Z,2.90
2022-08-17T02:57:21.444Z,3.10
2022-08-17T02:59:52.517Z,3.30
2022-08-17T03:02:23.816Z,3.05
2022-08-17T03:04:55.415Z,3.45
2022-08-17T03:07:26.309Z,3.30
2022-08-17T03:09:57.031Z,3.47
2022-08-17T03:12:29.008Z,3.02
2022-08-17T03:15:00.353Z,2.85
2022-08-17T03:17:31.507Z,3.40
2022-08-17T03:20:02.506Z,3.90
2022-08-17T03:22:36.828Z,3.12
2022-08-17T03:25:10.702Z,2.90
2022-08-17T03:27:42.064Z,2.92
2022-08-17T03:30:14.770Z,3.02
2022-08-17T03:32:49.374Z,3.17
2022-08-17T03:35:23.203Z,3.10
2022-08-17T03:38:00.100Z,3.08
2022-08-17T03:40:34.779Z,3.20
2022-08-17T03:43:00.253Z,2.83
2022-08-17T03:45:32.618Z,2.50
2022-08-17T03:48:06.016Z,2.98
2022-08-17T03:50:38.421Z,3.05
2022-08-17T03:53:13.549Z,2.98
2022-08-17T03:55:46.104Z,2.37
2022-08-17T03:58:17.369Z,2.70
2022-08-17T04:00:48.087Z,2.72
2022-08-17T04:03:19.545Z,2.52
2022-08-17T04:05:50.497Z,2.50
2022-08-17T04:08:31.043Z,2.30
2022-08-17T04:11:03.010Z,2.37
2022-08-17T04:13:34.149Z,2.55
2022-08-17T04:16:05.171Z,2.22
2022-08-17T04:18:36.115Z,2.35
2022-08-17T04:21:07.179Z,2.33
2022-08-17T04:23:39.171Z,2.60
2022-08-17T04:26:10.299Z,2.92
2022-08-17T04:28:43.266Z,2.67
2022-08-17T04:31:15.983Z,2.62
2022-08-17T04:33:47.339Z,2.45
2022-08-17T04:36:20.639Z,2.12
2022-08-17T04:38:51.852Z,2.33
2022-08-17T04:41:24.413Z,2.30
2022-08-17T04:43:57.737Z,2.65
2022-08-17T04:46:32.640Z,2.20
2022-08-17T04:49:05.954Z,2.30
2022-08-17T04:51:39.271Z,2.37
2022-08-17T04:54:14.320Z,2.20
2022-08-17T04:56:46.014Z,2.40
2022-08-17T04:59:19.366Z,2.83
2022-08-17T05:01:52.612Z,2.22
2022-08-17T05:04:34.442Z,2.50
2022-08-17T05:06:58.277Z,2.37
2022-08-17T05:09:29.724Z,2.10
2022-08-17T05:12:03.558Z,2.50
2022-08-17T05:14:34.675Z,2.52
2022-08-17T05:17:09.602Z,2.50
2022-08-17T05:19:39.254Z,2.20
2022-08-17T05:22:10.283Z,2.45
2022-08-17T05:24:43.515Z,2.00
2022-08-17T05:27:18.691Z,2.90
2022-08-17T05:29:46.081Z,2.42
2022-08-17T05:32:38.034Z,2.05
2022-08-17T05:34:51.196Z,2.52
2022-08-17T05:37:22.646Z,2.30
2022-08-17T05:39:53.719Z,2.20
2022-08-17T05:42:25.436Z,1.80
2022-08-17T05:45:00.691Z,1.92
2022-08-17T05:47:32.841Z,1.90
2022-08-17T05:50:09.483Z,2.00
2022-08-17T05:52:38.244Z,2.05
2022-08-17T05:55:10.285Z,1.77
2022-08-17T05:57:53.012Z,1.70
2022-08-17T06:00:20.325Z,2.17
2022-08-17T06:02:50.668Z,2.00
2022-08-17T06:05:24.066Z,1.92
2022-08-17T06:07:57.340Z,2.60
2022-08-17T06:10:31.073Z,2.12
2022-08-17T06:13:03.137Z,1.80
2022-08-17T06:15:36.737Z,1.60
2022-08-17T06:18:10.328Z,1.80
2022-08-17T06:20:43.626Z,2.20
2022-08-17T06:23:17.042Z,1.90
2022-08-17T06:25:50.450Z,1.70
2022-08-17T06:28:24.864Z,1.70
2022-08-17T06:31:00.616Z,1.70
2022-08-17T06:33:33.560Z,1.67
2022-08-17T06:36:09.650Z,2.00
2022-08-17T06:38:41.562Z,1.80
2022-08-17T06:41:14.755Z,1.67
2022-08-17T06:43:48.042Z,1.90
2022-08-17T06:46:21.049Z,2.12
2022-08-17T06:48:55.274Z,1.65
2022-08-17T06:51:47.846Z,1.60
2022-08-17T06:54:21.201Z,1.90
2022-08-17T06:56:55.491Z,1.80
2022-08-17T06:59:30.452Z,1.95
2022-08-17T07:02:04.817Z,2.30
2022-08-17T07:04:38.185Z,1.95
2022-08-17T07:07:12.718Z,2.45
2022-08-17T07:09:43.777Z,2.40
2022-08-17T07:12:17.419Z,3.25
2022-08-17T07:14:52.224Z,3.20
2022-08-17T07:17:46.460Z,2.80
2022-08-17T07:20:00.780Z,2.90
2022-08-17T07:22:50.644Z,2.35
2022-08-17T07:25:12.279Z,3.05
2022-08-17T07:27:49.530Z,2.87
2022-08-17T07:30:21.449Z,2.40
2022-08-17T07:32:55.012Z,2.37
2022-08-17T07:35:37.602Z,2.55
2022-08-17T07:38:04.642Z,2.15
2022-08-17T07:40:37.713Z,2.52
2022-08-17T07:43:21.655Z,2.42
2022-08-17T07:45:47.127Z,2.40
2022-08-17T07:48:21.911Z,2.45
2022-08-17T07:50:54.457Z,3.60
2022-08-17T07:53:28.366Z,3.00
2022-08-17T07:55:59.592Z,3.02
2022-08-17T07:58:31.213Z,2.17
2022-08-17T08:01:05.964Z,5.40
2022-08-17T08:03:39.827Z,7.15
2022-08-17T08:06:14.679Z,3.58
2022-08-17T08:08:48.415Z,6.67
2022-08-17T08:11:22.091Z,3.55
2022-08-17T08:13:52.952Z,3.50
2022-08-17T08:16:26.626Z,3.60
2022-08-17T08:19:00.227Z,2.80
2022-08-17T08:21:32.412Z,2.98
2022-08-17T08:24:06.003Z,3.05
2022-08-17T08:26:40.215Z,2.65
2022-08-17T08:29:12.381Z,1.92
2022-08-17T08:31:45.556Z,1.50
2022-08-17T08:34:58.958Z,1.52
2022-08-17T08:37:12.734Z,1.87
2022-08-17T08:39:26.085Z,1.45
2022-08-17T08:41:58.137Z,1.32
2022-08-17T08:44:59.878Z,1.32
2022-08-17T08:47:04.215Z,1.60
2022-08-17T08:50:02.810Z,1.20
2022-08-17T08:52:12.229Z,1.50
2022-08-17T08:54:45.607Z,2.12
2022-08-17T08:57:32.923Z,1.42
2022-08-17T08:59:58.310Z,1.70
2022-08-17T09:02:25.925Z,1.77
2022-08-17T09:05:13.973Z,1.20
2022-08-17T09:07:32.310Z,1.80
2022-08-17T09:10:12.708Z,1.57
2022-08-17T09:12:46.081Z,1.17
2022-08-17T09:15:22.354Z,1.50
2022-08-17T09:18:21.331Z,1.47
2022-08-17T09:20:37.496Z,1.85
2022-08-17T09:23:11.116Z,1.98
2022-08-17T09:25:46.367Z,1.47
2022-08-17T09:28:23.771Z,1.62
2022-08-17T09:30:58.535Z,1.50
2022-08-17T09:33:33.204Z,1.67
2022-08-17T09:36:04.169Z,1.82
2022-08-17T09:38:35.895Z,2.10
2022-08-17T09:41:07.662Z,1.90
2022-08-17T09:43:41.067Z,1.72
2022-08-17T09:46:14.402Z,1.50
2022-08-17T09:48:51.585Z,1.87
2022-08-17T09:54:38.507Z,1.87
2022-08-17T09:59:38.994Z,1.65
2022-08-17T10:02:24.107Z,1.82
2022-08-17T10:05:00.320Z,1.57
2022-08-17T10:07:38.069Z,2.33
2022-08-17T10:10:14.313Z,1.70
2022-08-17T10:12:47.062Z,1.75
2022-08-17T10:15:20.600Z,1.55
2022-08-17T10:17:55.452Z,1.72
2022-08-17T10:20:29.277Z,2.55
2022-08-17T10:23:06.708Z,1.80
2022-08-17T10:25:54.678Z,1.77
2022-08-17T10:28:25.854Z,1.32
2022-08-17T10:31:30.881Z,1.70
2022-08-17T10:33:36.703Z,1.80
2022-08-17T10:36:10.928Z,1.70
2022-08-17T10:38:45.863Z,1.52
2022-08-17T10:41:21.477Z,1.82
2022-08-17T10:44:36.748Z,1.60
2022-08-17T10:46:30.987Z,1.67
2022-08-17T10:49:09.096Z,1.75
2022-08-17T10:52:19.284Z,1.70
2022-08-17T10:54:33.126Z,1.77
2022-08-17T10:57:03.817Z,1.40
2022-08-17T10:59:37.276Z,1.70
2022-08-17T11:02:09.062Z,2.05
2022-08-17T11:04:42.715Z,1.92
2022-08-17T11:07:15.909Z,1.98
2022-08-17T11:09:49.267Z,2.37
2022-08-17T11:12:22.605Z,2.12
2022-08-17T11:14:55.802Z,2.02
2022-08-17T11:17:30.914Z,2.12
2022-08-17T11:20:05.411Z,2.50
2022-08-17T11:22:38.789Z,1.75
2022-08-17T11:25:14.453Z,1.92
2022-08-17T11:27:48.653Z,2.02
2022-08-17T11:30:23.234Z,2.37
2022-08-17T11:32:57.913Z,2.45
2022-08-17T11:35:31.485Z,2.08
2022-08-17T11:38:08.677Z,2.52
2022-08-17T11:40:42.296Z,2.25
2022-08-17T11:43:17.224Z,2.27
2022-08-17T11:45:50.122Z,2.67
2022-08-17T11:48:28.274Z,2.37
2022-08-17T11:50:59.023Z,2.30
2022-08-17T11:53:32.345Z,2.90
2022-08-17T11:56:05.056Z,2.45
2022-08-17T11:58:40.308Z,2.62
2022-08-17T12:01:12.379Z,3.20
2022-08-17T12:03:55.262Z,3.17
2022-08-17T12:06:22.215Z,2.80
2022-08-17T12:08:56.860Z,2.60
2022-08-17T12:11:55.158Z,2.40
2022-08-17T12:14:03.556Z,2.67
2022-08-17T12:16:35.448Z,2.33
2022-08-17T12:19:07.359Z,2.52
2022-08-17T12:21:41.685Z,2.52
2022-08-17T12:24:15.256Z,2.95
2022-08-17T12:26:47.356Z,2.45
2022-08-17T12:29:35.833Z,2.62
2022-08-17T12:31:55.578Z,2.47
2022-08-17T12:34:28.908Z,3.02
2022-08-17T12:37:02.192Z,2.58
2022-08-17T12:39:36.387Z,2.20
2022-08-17T12:42:07.765Z,2.58
2022-08-17T12:44:42.981Z,2.50
2022-08-17T12:47:23.773Z,2.60
2022-08-17T12:49:59.992Z,3.22
2022-08-17T12:52:34.184Z,3.50
2022-08-17T12:55:11.588Z,3.60
2022-08-17T13:00:47.709Z,3.00
2022-08-17T13:03:22.610Z,3.72
2022-08-17T13:05:54.210Z,3.20
2022-08-17T13:09:00.435Z,3.52
2022-08-17T13:11:46.900Z,2.75
2022-08-17T13:14:19.239Z,3.87
2022-08-17T13:16:53.888Z,3.70
2022-08-17T13:19:39.979Z,2.75
2022-08-17T13:22:04.261Z,4.30
2022-08-17T13:24:41.575Z,3.42
2022-08-17T13:27:17.027Z,3.22
2022-08-17T13:29:52.964Z,3.10
2022-08-17T13:32:29.467Z,3.80
2022-08-17T13:37:44.321Z,3.98
2022-08-17T13:40:15.725Z,3.17
2022-08-17T13:42:53.118Z,3.92
2022-08-17T13:45:36.269Z,3.50
2022-08-17T13:48:01.240Z,3.20
2022-08-17T13:50:35.865Z,3.37
2022-08-17T13:53:09.155Z,3.17
2022-08-17T13:55:45.121Z,3.08
2022-08-17T13:58:20.523Z,2.92
2022-08-17T14:03:35.430Z,3.00
2022-08-17T14:06:07.251Z,2.90
2022-08-17T14:08:42.202Z,3.37
2022-08-17T14:11:14.270Z,2.90
2022-08-17T14:13:47.323Z,3.00
2022-08-17T14:16:22.103Z,2.98
2022-08-17T14:18:57.018Z,3.22
2022-08-17T14:21:25.115Z,3.15
2022-08-17T14:23:55.900Z,3.27
2022-08-17T14:26:33.107Z,3.55
2022-08-17T14:32:04.358Z,3.55
2022-08-17T14:34:36.626Z,3.37
2022-08-17T14:37:08.028Z,3.40
2022-08-17T14:39:39.192Z,3.62
2022-08-17T14:42:11.724Z,2.85
2022-08-17T14:44:43.087Z,3.10
2022-08-17T14:47:19.248Z,2.83
2022-08-17T14:49:54.000Z,3.15
2022-08-17T14:52:32.077Z,2.90
2022-08-17T14:55:07.248Z,3.33
2022-08-17T14:57:40.805Z,2.83
2022-08-17T15:00:12.875Z,3.08
2022-08-17T15:02:49.442Z,3.45
2022-08-17T15:07:51.572Z,2.77
2022-08-17T15:10:25.897Z,2.98
2022-08-17T15:12:56.064Z,3.10
2022-08-17T15:15:28.447Z,2.47
2022-08-17T15:18:01.419Z,2.25
2022-08-17T15:20:34.012Z,2.08
2022-08-17T15:23:05.263Z,1.62
2022-08-17T15:25:36.641Z,2.12
2022-08-17T15:28:08.663Z,2.05
2022-08-17T15:30:41.533Z,1.98
2022-08-17T15:33:19.951Z,2.40
2022-08-17T15:35:54.668Z,2.10
2022-08-17T15:38:31.286Z,2.70
2022-08-17T15:43:33.858Z,2.05
2022-08-17T15:46:07.560Z,2.20
2022-08-17T15:48:40.244Z,2.30
2022-08-17T15:51:17.674Z,2.20
2022-08-17T15:53:51.027Z,3.67
2022-08-17T15:56:29.006Z,2.72
2022-08-17T15:58:59.888Z,2.72
2022-08-17T16:02:33.657Z,3.02
2022-08-17T16:04:30.427Z,3.20
2022-08-17T16:06:40.778Z,3.62
2022-08-17T16:09:18.724Z,3.52
2022-08-17T16:11:52.038Z,3.40
2022-08-17T16:14:22.513Z,4.35
2022-08-17T16:16:54.874Z,3.92
2022-08-17T16:19:26.021Z,4.03
2022-08-17T16:21:56.876Z,3.75
2022-08-17T16:24:27.808Z,3.60
2022-08-17T16:26:58.799Z,3.65
2022-08-17T16:29:30.393Z,3.65
2022-08-17T16:32:02.773Z,4.05
2022-08-17T16:34:35.032Z,3.80
2022-08-17T16:37:05.905Z,3.92
2022-08-17T16:39:42.170Z,3.80
2022-08-17T16:42:15.941Z,4.08
2022-08-17T16:44:47.213Z,4.75
2022-08-17T16:47:19.325Z,4.22
2022-08-17T16:49:59.639Z,4.28
2022-08-17T16:52:32.916Z,4.20
2022-08-17T16:55:13.500Z,4.17
2022-08-17T16:57:50.689Z,4.12
2022-08-17T17:00:19.239Z,4.60
2022-08-17T17:02:51.539Z,4.30
2022-08-17T17:05:26.476Z,5.25
2022-08-17T17:07:59.756Z,5.10
2022-08-17T17:10:34.260Z,5.25
2022-08-17T17:13:07.427Z,4.90
2022-08-17T17:15:42.325Z,4.97
2022-08-17T17:18:16.646Z,5.25
2022-08-17T17:21:05.874Z,5.20
2022-08-17T17:23:33.036Z,5.35
2022-08-17T17:26:06.358Z,5.25
2022-08-17T17:28:40.339Z,5.33
2022-08-17T17:31:13.726Z,5.30
2022-08-17T17:33:48.492Z,5.33
2022-08-17T17:36:21.740Z,5.15
2022-08-17T17:38:55.362Z,5.17
2022-08-17T17:41:37.963Z,5.42
2022-08-17T17:44:05.148Z,4.95
2022-08-17T17:46:39.939Z,5.22
2022-08-17T17:49:12.550Z,5.90
2022-08-17T17:51:55.003Z,5.17
2022-08-17T17:54:19.501Z,5.62
2022-08-17T17:56:52.811Z,5.37
2022-08-17T17:59:24.689Z,6.55
2022-08-17T18:01:58.684Z,5.70
2022-08-17T18:04:32.213Z,6.33
2022-08-17T18:07:05.810Z,5.65
2022-08-17T18:09:40.547Z,5.45
2022-08-17T18:12:14.123Z,5.42
2022-08-17T18:14:47.820Z,5.80
2022-08-17T18:17:19.690Z,5.80
2022-08-17T18:19:54.598Z,6.40
2022-08-17T18:22:26.631Z,5.95
2022-08-17T18:24:58.843Z,6.10
2022-08-17T18:27:30.512Z,6.17
2022-08-17T18:30:08.761Z,5.80
2022-08-17T18:32:40.876Z,6.53
2022-08-17T18:35:11.025Z,6.35
2022-08-17T18:37:41.114Z,6.55
2022-08-17T18:40:20.238Z,6.85
2022-08-17T18:42:52.412Z,6.72
2022-08-17T18:45:26.120Z,7.35
2022-08-17T18:47:58.561Z,6.67
2022-08-17T18:50:31.887Z,6.85
2022-08-17T18:53:07.282Z,6.95
2022-08-17T18:55:37.965Z,6.00
2022-08-17T18:58:11.978Z,7.05
2022-08-17T19:00:45.491Z,6.40
2022-08-17T19:03:20.075Z,6.15
2022-08-17T19:05:53.701Z,5.53
2022-08-17T19:08:23.870Z,5.53
2022-08-17T19:10:57.330Z,5.42
2022-08-17T19:13:30.647Z,5.87
2022-08-17T19:16:14.342Z,6.42
2022-08-17T19:18:38.968Z,7.05
2022-08-17T19:21:12.357Z,6.15
2022-08-17T19:23:53.892Z,6.20
2022-08-17T19:26:54.572Z,6.05
2022-08-17T19:28:56.529Z,6.83
2022-08-17T19:31:30.093Z,6.65
2022-08-17T19:34:02.944Z,6.30
2022-08-17T19:36:36.702Z,6.37
2022-08-17T19:39:09.956Z,6.00
2022-08-17T19:41:46.773Z,5.80
2022-08-17T19:44:20.424Z,6.50
2022-08-17T19:46:56.187Z,6.22
2022-08-17T19:49:33.461Z,7.00
2022-08-17T19:52:01.702Z,6.58
2022-08-17T19:54:33.618Z,6.78
2022-08-17T19:57:08.043Z,7.60
2022-08-17T19:59:39.722Z,6.47
2022-08-17T20:02:12.997Z,5.90
2022-08-17T20:04:46.177Z,6.28
2022-08-17T20:07:19.729Z,5.78
2022-08-17T20:09:53.536Z,6.03
2022-08-17T20:12:28.076Z,5.80
2022-08-17T20:15:01.373Z,5.72
2022-08-17T20:17:34.683Z,5.20
2022-08-17T20:20:07.761Z,5.45
2022-08-17T20:22:52.192Z,4.80
2022-08-17T20:25:17.294Z,6.20
2022-08-17T20:27:51.977Z,5.45
2022-08-17T20:30:27.800Z,5.75
2022-08-17T20:33:01.380Z,5.60
2022-08-17T20:35:35.185Z,5.15
2022-08-17T20:38:08.396Z,5.60
2022-08-17T20:40:41.676Z,5.60
2022-08-17T20:43:15.071Z,6.10
2022-08-17T20:45:48.666Z,5.12
2022-08-17T20:48:37.569Z,5.60
2022-08-17T20:50:56.818Z,5.05
2022-08-17T20:53:30.200Z,5.97
2022-08-17T20:56:01.035Z,5.53
2022-08-17T20:58:36.116Z,5.65
2022-08-17T21:01:10.824Z,5.50
2022-08-17T21:03:50.133Z,5.60
2022-08-17T21:06:17.957Z,5.60
2022-08-17T21:08:52.703Z,5.85
2022-08-17T21:12:01.495Z,5.17
2022-08-17T21:14:03.027Z,4.83
2022-08-17T21:16:36.339Z,5.60
2022-08-17T21:19:09.908Z,4.67
2022-08-17T21:21:43.694Z,5.37
2022-08-17T21:24:19.357Z,5.42
2022-08-17T21:26:52.763Z,5.05
2022-08-17T21:29:31.447Z,4.97
2022-08-17T21:32:00.892Z,5.35
2022-08-17T21:34:35.454Z,5.17
2022-08-17T21:37:09.166Z,5.30
2022-08-17T21:39:43.068Z,5.35
2022-08-17T21:42:15.997Z,5.00
2022-08-17T21:44:49.507Z,5.30
2022-08-17T21:47:21.206Z,4.95
2022-08-17T21:49:53.212Z,5.22
2022-08-17T21:52:26.717Z,5.25
2022-08-17T21:55:00.222Z,5.28
2022-08-17T21:57:32.539Z,4.53
2022-08-17T22:00:06.282Z,4.58
2022-08-17T22:02:39.884Z,4.78
2022-08-17T22:05:13.292Z,4.42
2022-08-17T22:07:47.238Z,4.78
2022-08-17T22:10:22.330Z,4.60
2022-08-17T22:12:55.569Z,4.65
2022-08-17T22:15:26.770Z,4.97
2022-08-17T22:17:59.145Z,4.70
2022-08-17T22:20:30.163Z,4.45
2022-08-17T22:23:03.273Z,4.45
2022-08-17T22:25:37.531Z,4.80
2022-08-17T22:28:13.854Z,4.92
2022-08-17T22:30:47.148Z,4.28
2022-08-17T22:33:20.471Z,4.50
2022-08-17T22:35:51.868Z,4.45
2022-08-17T22:38:22.436Z,4.30
2022-08-17T22:40:56.135Z,4.87
2022-08-17T22:43:30.057Z,4.67
2022-08-17T22:46:03.254Z,4.53
2022-08-17T22:48:34.903Z,4.12
2022-08-17T22:51:12.161Z,4.55
2022-08-17T22:53:43.430Z,4.05
2022-08-17T22:56:19.229Z,4.12
2022-08-17T22:58:58.988Z,4.57
2022-08-17T23:01:29.896Z,4.00
2022-08-17T23:04:03.418Z,4.45
2022-08-17T23:06:36.754Z,4.87
2022-08-17T23:09:09.445Z,4.83
2022-08-17T23:11:48.642Z,4.87
2022-08-17T23:14:16.875Z,5.20
2022-08-17T23:16:47.957Z,4.72
2022-08-17T23:19:21.805Z,4.28
2022-08-17T23:21:54.200Z,4.55
2022-08-17T23:24:27.762Z,4.72
2022-08-17T23:27:00.441Z,4.95
2022-08-17T23:29:31.796Z,4.20
2022-08-17T23:32:04.837Z,4.80
2022-08-17T23:34:36.055Z,5.15
2022-08-17T23:37:07.156Z,5.10
2022-08-17T23:39:39.035Z,5.17
2022-08-17T23:42:12.309Z,5.45
2022-08-17T23:44:45.184Z,5.45
2022-08-17T23:47:16.235Z,5.42
2022-08-17T23:49:47.200Z,5.67
2022-08-17T23:52:18.704Z,4.97
2022-08-17T23:54:51.218Z,4.90
2022-08-17T23:57:33.886Z,5.65
2022-08-17T23:59:56.311Z,5.40
